Kirtland Hills, Ohio
Current Conditions -  °F | °C
As of 3:15 PM on Thursday 29 Jan 2015 (Local Time) from KLNN Reporting Station
Overcast Overcast  
Wind Chill: 29°   Ceiling: 2500
Heat Index: 35°   Visibility: 5mi
Dew Point: 32°   Wind: 7mph
Humidity: 90%   Direction: 220°SW
Pressure: 29.72"   Gusts: NA
Location:  41.6111°N, 81.3789°W
Report Text: KLNN 292015Z AUTO 22006KT 5SM OVC025 02/00 A2972 RMK AO1 T00150001
Loading
Personal Weather Stations






























Interactive Weather Map New forecast layout! Learn more

10-Day Weather Forecast

Advertisements
Track Severe Weather on mobile